Time;durP1;ratioP1;P1;durP2;ratioP2;P2;SDS_P1;SDS_P2;PMS_P1;PMS_P2;Temp;Humidity;BMP_temperature;BMP_pressure;BME280_temperature;BME280_humidity;BME280_pressure;Samples;Min_cycle;Max_cycle;Signal;HPM_P1;HPM_P2
2020/12/17 00:02:14;;;;;;;27.38;14.15;;;;;;;3.61;91.19;99346.44;5035541;28;20128;-78
2020/12/17 00:04:40;;;;;;;26.27;13.85;;;;;;;3.61;91.31;99338.38;5040113;28;20053;-78
2020/12/17 00:07:07;;;;;;;26.13;12.68;;;;;;;3.59;91.40;99334.97;5033436;28;20052;-78
2020/12/17 00:09:34;;;;;;;28.77;12.55;;;;;;;3.63;90.93;99339.06;5050717;28;20041;-78
2020/12/17 00:12:00;;;;;;;23.08;11.95;;;;;;;3.68;90.93;99342.22;5052519;28;20060;-78
2020/12/17 00:14:26;;;;;;;24.92;13.27;;;;;;;3.76;90.08;99341.53;5052369;28;20053;-78
2020/12/17 00:16:52;;;;;;;26.42;13.35;;;;;;;3.78;89.79;99343.09;5040788;28;20146;-78
2020/12/17 00:19:19;;;;;;;26.45;13.07;;;;;;;3.67;89.71;99325.25;5043724;28;20045;-78
2020/12/17 00:21:45;;;;;;;27.55;13.45;;;;;;;3.72;89.63;99335.59;5047829;28;20075;-78
2020/12/17 00:24:11;;;;;;;23.65;13.38;;;;;;;3.68;89.71;99323.41;5052367;28;20041;-78
2020/12/17 00:26:38;;;;;;;21.75;12.63;;;;;;;3.60;90.42;99323.22;5046014;28;20052;-78
2020/12/17 00:29:04;;;;;;;21.63;12.52;;;;;;;3.40;90.48;99293.56;5038155;28;20393;-78
2020/12/17 00:31:30;;;;;;;23.27;12.57;;;;;;;3.56;90.78;99328.03;5050941;28;20092;-78
2020/12/17 00:33:57;;;;;;;24.50;12.38;;;;;;;3.54;90.76;99312.03;5050798;28;20095;-78
2020/12/17 00:36:23;;;;;;;19.13;10.30;;;;;;;3.57;90.85;99315.41;5051976;28;20094;-77
2020/12/17 00:38:50;;;;;;;27.38;13.00;;;;;;;3.66;90.21;99303.88;5050468;28;20127;-77
2020/12/17 00:41:17;;;;;;;24.40;12.85;;;;;;;3.68;90.36;99296.50;5052811;28;20045;-77
2020/12/17 00:43:46;;;;;;;20.20;11.82;;;;;;;3.82;90.01;99304.16;5049328;28;20045;-77
2020/12/17 00:46:13;;;;;;;21.73;11.88;;;;;;;3.82;89.86;99296.09;5050903;28;20076;-77
2020/12/17 00:48:39;;;;;;;24.27;11.85;;;;;;;3.82;89.85;99290.72;5051967;28;20456;-77
2020/12/17 00:51:05;;;;;;;25.05;11.98;;;;;;;3.84;89.88;99299.53;5050942;28;20049;-77
2020/12/17 00:53:31;;;;;;;19.65;10.95;;;;;;;3.85;89.65;99298.53;5052101;28;20083;-77
2020/12/17 00:55:58;;;;;;;21.95;11.13;;;;;;;3.86;89.62;99305.59;5048823;28;20099;-77
2020/12/17 00:58:24;;;;;;;19.58;11.88;;;;;;;3.72;89.44;99287.19;5051337;28;20056;-77
2020/12/17 01:00:53;;;;;;;21.75;11.43;;;;;;;3.93;89.29;99315.78;5048020;28;20048;-77
2020/12/17 01:03:19;;;;;;;23.67;11.57;;;;;;;3.84;89.51;99306.72;5048620;28;20051;-77
2020/12/17 01:05:45;;;;;;;20.25;10.30;;;;;;;3.87;89.25;99307.31;5051619;28;20041;-77
2020/12/17 01:08:11;;;;;;;14.65;9.60;;;;;;;3.84;89.02;99304.91;5048626;28;20045;-77
2020/12/17 01:10:38;;;;;;;17.52;10.70;;;;;;;3.82;89.69;99320.31;5050994;28;20040;-77
2020/12/17 01:13:04;;;;;;;21.27;11.77;;;;;;;3.83;89.41;99323.88;5051371;28;20049;-77
2020/12/17 01:15:30;;;;;;;17.90;10.38;;;;;;;3.75;89.28;99329.06;5049602;28;20134;-77
2020/12/17 01:17:57;;;;;;;23.27;11.07;;;;;;;3.75;89.50;99316.50;5050772;28;20076;-77
2020/12/17 01:20:23;;;;;;;21.48;10.85;;;;;;;3.67;89.03;99317.19;5040310;28;20045;-78
2020/12/17 01:22:53;;;;;;;18.77;10.52;;;;;;;3.75;89.14;99329.94;5042162;28;20063;-77
2020/12/17 01:25:19;;;;;;;18.45;10.15;;;;;;;3.75;88.89;99329.94;5050753;28;20063;-77
2020/12/17 01:27:46;;;;;;;19.63;10.02;;;;;;;3.76;88.77;99326.22;5051461;28;20041;-77
2020/12/17 01:30:12;;;;;;;19.92;11.02;;;;;;;3.72;88.79;99332.91;5051082;28;20057;-78
2020/12/17 01:32:38;;;;;;;19.67;9.73;;;;;;;3.56;88.90;99303.00;5040116;28;20060;-77
2020/12/17 01:35:05;;;;;;;19.58;11.00;;;;;;;3.77;88.56;99319.88;5047990;28;20118;-77
2020/12/17 01:37:32;;;;;;;19.80;10.07;;;;;;;3.76;88.53;99325.41;5051219;28;20049;-77
2020/12/17 01:39:59;;;;;;;18.65;10.77;;;;;;;3.74;88.77;99330.91;5049498;28;20060;-77
2020/12/17 01:42:25;;;;;;;21.58;11.98;;;;;;;3.70;88.16;99321.41;5050839;28;20049;-77
2020/12/17 01:44:51;;;;;;;20.95;10.52;;;;;;;3.71;88.39;99326.66;5050516;28;20107;-77
2020/12/17 01:47:17;;;;;;;19.77;9.65;;;;;;;3.70;88.56;99334.84;5051286;28;20056;-77
2020/12/17 01:49:46;;;;;;;18.73;9.48;;;;;;;3.59;88.91;99324.22;5048399;28;20046;-77
2020/12/17 01:52:14;;;;;;;19.70;9.70;;;;;;;3.53;88.92;99347.94;5051247;28;20057;-77
2020/12/17 01:54:52;;;;;;;17.75;10.32;;;;;;;3.56;88.79;99349.53;5050687;28;20055;-77
2020/12/17 01:57:21;;;;;;;21.45;10.38;;;;;;;3.52;88.55;99356.16;5054416;28;20056;-78
2020/12/17 01:59:49;;;;;;;19.75;10.82;;;;;;;3.41;88.52;99349.03;5054111;28;20055;-77
2020/12/17 02:02:16;;;;;;;18.40;10.45;;;;;;;3.34;88.66;99355.94;5054369;28;20485;-77
2020/12/17 02:04:43;;;;;;;20.50;11.30;;;;;;;3.36;88.32;99362.03;5054134;28;20071;-77
2020/12/17 02:07:10;;;;;;;19.73;10.00;;;;;;;3.28;88.58;99354.66;5048583;28;20325;-77
2020/12/17 02:09:37;;;;;;;21.50;11.23;;;;;;;3.30;88.31;99360.72;5054419;28;20044;-77
2020/12/17 02:12:04;;;;;;;17.65;11.00;;;;;;;3.40;88.41;99365.28;5052887;28;20234;-77
2020/12/17 02:14:30;;;;;;;16.58;9.73;;;;;;;3.29;88.88;99364.38;5054272;28;20106;-77
2020/12/17 02:16:56;;;;;;;19.58;10.93;;;;;;;3.29;88.73;99359.00;5052540;28;20489;-77
2020/12/17 02:19:23;;;;;;;19.85;9.88;;;;;;;3.33;88.23;99360.47;5054392;28;20195;-78
2020/12/17 02:21:49;;;;;;;17.95;10.68;;;;;;;3.27;88.98;99362.84;5054164;28;20056;-77
2020/12/17 02:24:20;;;;;;;21.70;10.95;;;;;;;3.24;88.89;99363.94;5053590;28;20118;-77
2020/12/17 02:26:46;;;;;;;22.67;10.27;;;;;;;3.29;88.97;99363.56;5054888;28;20048;-77
2020/12/17 02:29:13;;;;;;;22.92;10.60;;;;;;;3.35;88.83;99369.22;5048257;28;20045;-77
2020/12/17 02:31:39;;;;;;;15.93;10.00;;;;;;;3.31;89.09;99367.81;5054770;28;20119;-77
2020/12/17 02:34:05;;;;;;;17.67;10.50;;;;;;;3.24;88.75;99366.63;5052746;28;20056;-77
2020/12/17 02:36:32;;;;;;;17.40;9.50;;;;;;;3.16;88.92;99361.94;5053832;28;20037;-77
2020/12/17 02:38:58;;;;;;;14.93;8.57;;;;;;;3.16;89.26;99359.25;5053689;28;20041;-78
2020/12/17 02:41:25;;;;;;;24.45;10.38;;;;;;;3.16;88.91;99342.25;5053072;28;20141;-77
2020/12/17 02:43:53;;;;;;;16.98;9.30;;;;;;;3.14;89.20;99354.97;5050249;28;20489;-78
2020/12/17 02:46:20;;;;;;;19.92;10.85;;;;;;;3.17;89.60;99360.94;5046224;28;20049;-77
2020/12/17 02:48:50;;;;;;;20.52;9.82;;;;;;;3.20;89.30;99359.81;5052206;28;20107;-78
2020/12/17 02:51:16;;;;;;;;;;;;;;;3.13;88.97;99375.63;5040261;28;20041;-77
2020/12/17 02:53:42;;;;;;;17.92;9.77;;;;;;;3.07;89.16;99375.28;5049390;28;20388;-78
2020/12/17 02:56:12;;;;;;;14.02;9.68;;;;;;;3.01;89.49;99372.16;5048551;28;20493;-77
2020/12/17 02:58:39;;;;;;;18.60;10.98;;;;;;;3.03;89.45;99366.66;5056390;28;20058;-78
2020/12/17 03:01:05;;;;;;;20.08;10.02;;;;;;;2.98;89.22;99372.44;5056473;28;20056;-78
2020/12/17 03:03:31;;;;;;;21.75;11.57;;;;;;;2.97;88.93;99372.56;5052259;28;20045;-77
2020/12/17 03:05:58;;;;;;;17.52;10.65;;;;;;;2.90;89.26;99374.91;5034092;28;20057;-77
2020/12/17 03:08:26;;;;;;;15.50;9.32;;;;;;;2.85;88.94;99374.44;5050579;28;20049;-77
2020/12/17 03:10:52;;;;;;;18.38;10.98;;;;;;;2.78;89.25;99366.03;5041291;28;20057;-78
2020/12/17 03:13:18;;;;;;;20.50;10.80;;;;;;;2.77;89.26;99360.81;5047638;28;20505;-77
2020/12/17 03:15:45;;;;;;;16.40;10.00;;;;;;;2.81;89.71;99365.78;5041726;28;20046;-78
2020/12/17 03:18:11;;;;;;;19.40;11.20;;;;;;;2.86;89.23;99369.91;5034964;28;20493;-78
2020/12/17 03:20:38;;;;;;;17.52;9.60;;;;;;;2.87;nan;99372.47;5052539;28;20049;-78
2020/12/17 03:23:04;;;;;;;18.95;9.55;;;;;;;2.80;89.38;99360.53;5053091;28;20049;-77
2020/12/17 03:25:30;;;;;;;18.67;11.25;;;;;;;2.96;89.40;99374.38;5052540;28;20081;-78
2020/12/17 03:27:56;;;;;;;20.70;10.57;;;;;;;2.91;89.44;99368.56;5042181;28;20041;-77
2020/12/17 03:30:23;;;;;;;17.17;10.23;;;;;;;2.92;89.42;99374.78;5044380;28;20501;-78
2020/12/17 03:32:50;;;;;;;15.70;9.77;;;;;;;2.90;89.48;99379.44;5052596;28;20056;-78
2020/12/17 03:35:16;;;;;;;18.35;11.38;;;;;;;2.86;89.12;99380.66;5053185;28;20049;-77
2020/12/17 03:37:42;;;;;;;17.40;10.70;;;;;;;2.91;89.47;99376.59;5052887;28;20110;-77
2020/12/17 03:40:08;;;;;;;18.20;9.70;;;;;;;2.89;88.98;99370.53;5053012;28;20045;-77
2020/12/17 03:42:35;;;;;;;19.80;10.02;;;;;;;2.84;89.48;99375.44;5053557;28;20056;-77
2020/12/17 03:45:01;;;;;;;17.15;10.68;;;;;;;2.84;89.27;99378.09;5053193;28;20488;-77
2020/12/17 03:47:27;;;;;;;19.35;10.57;;;;;;;2.83;89.57;99376.41;5051022;28;20048;-77
2020/12/17 03:49:54;;;;;;;21.23;10.85;;;;;;;2.86;89.25;99360.06;5053313;28;20100;-77
2020/12/17 03:52:20;;;;;;;20.17;10.77;;;;;;;2.76;88.93;99356.44;5040957;28;20080;-77
2020/12/17 03:54:46;;;;;;;23.10;11.43;;;;;;;2.86;89.22;99375.28;5053307;28;20045;-77
2020/12/17 03:57:13;;;;;;;20.52;10.55;;;;;;;2.84;89.14;99367.38;5043075;28;20122;-77
2020/12/17 03:59:39;;;;;;;21.17;11.57;;;;;;;2.81;89.05;99365.78;5053116;28;20056;-78
2020/12/17 04:02:05;;;;;;;19.65;11.40;;;;;;;2.81;89.11;99381.06;5040092;28;20378;-77
2020/12/17 04:04:31;;;;;;;19.10;11.15;;;;;;;2.65;89.23;99365.41;5045905;28;20037;-77
2020/12/17 04:06:58;;;;;;;22.92;11.40;;;;;;;2.74;89.09;99382.56;5033412;28;20041;-77
2020/12/17 04:09:24;;;;;;;19.55;10.63;;;;;;;2.77;89.18;99366.19;5049905;28;20052;-77
2020/12/17 04:11:51;;;;;;;20.10;10.73;;;;;;;2.88;89.04;99367.97;5047177;28;20053;-78
2020/12/17 04:17:38;;;;;;;20.02;10.30;;;;;;;2.85;88.75;99373.63;5043687;28;20043;-77
2020/12/17 04:20:05;;;;;;;20.23;10.85;;;;;;;2.80;88.94;99371.28;5047110;28;20045;-77
2020/12/17 04:22:32;;;;;;;21.92;10.25;;;;;;;2.68;89.63;99365.16;5052251;28;20049;-77
2020/12/17 04:24:58;;;;;;;19.73;10.57;;;;;;;2.73;89.13;99359.38;5048313;28;20400;-77
2020/12/17 04:27:24;;;;;;;16.52;9.55;;;;;;;2.69;89.39;99363.31;5052535;28;20507;-77
2020/12/17 04:29:51;;;;;;;17.58;11.07;;;;;;;2.86;88.96;99375.28;5051296;28;20060;-77
2020/12/17 04:32:17;;;;;;;17.13;8.52;;;;;;;2.70;89.01;99354.28;5052160;28;20318;-77
2020/12/17 04:34:43;;;;;;;20.65;10.27;;;;;;;2.70;89.18;99368.53;5046979;28;20042;-77
2020/12/17 04:37:09;;;;;;;18.00;10.10;;;;;;;2.77;89.09;99377.78;5044763;28;20126;-77
2020/12/17 04:39:37;;;;;;;14.35;9.25;;;;;;;2.72;89.04;99376.47;5049008;28;20041;-77
2020/12/17 04:42:03;;;;;;;16.63;10.18;;;;;;;2.58;88.71;99356.16;5042462;28;20098;-77
2020/12/17 04:44:30;;;;;;;17.35;10.48;;;;;;;2.65;89.09;99379.69;5053972;28;20049;-77
2020/12/17 04:46:57;;;;;;;19.20;10.98;;;;;;;2.79;88.76;99375.81;5053477;28;20056;-77
2020/12/17 04:49:26;;;;;;;19.50;10.07;;;;;;;2.76;88.82;99378.75;5051555;28;20049;-77
2020/12/17 04:51:56;;;;;;;17.65;10.75;;;;;;;2.75;89.17;99371.69;5051126;28;20049;-77
2020/12/17 04:54:23;;;;;;;20.30;11.07;;;;;;;2.77;89.24;99360.81;5050911;28;20046;-77
2020/12/17 04:56:58;;;;;;;15.38;10.00;;;;;;;2.73;89.29;99359.38;5048247;28;20102;-77
2020/12/17 04:59:40;;;;;;;19.83;9.93;;;;;;;2.70;89.56;99348.91;5038193;28;20045;-77
2020/12/17 05:02:07;;;;;;;19.25;9.63;;;;;;;2.75;89.24;99341.31;5032431;28;20073;-79
2020/12/17 05:04:37;;;;;;;16.65;10.07;;;;;;;2.91;88.83;99355.13;5040151;28;20071;-78
2020/12/17 05:07:05;;;;;;;18.15;10.10;;;;;;;2.88;88.60;99347.34;5053188;28;20045;-80
2020/12/17 05:09:32;;;;;;;19.70;10.38;;;;;;;2.94;88.30;99343.28;5050866;28;20436;-80
2020/12/17 05:11:59;;;;;;;17.88;9.20;;;;;;;2.87;88.64;99361.72;5052869;28;20057;-79
2020/12/17 05:14:28;;;;;;;16.58;10.27;;;;;;;2.92;88.95;99364.03;5047830;28;20037;-80
2020/12/17 05:16:54;;;;;;;18.45;10.20;;;;;;;2.73;88.36;99325.31;5031725;28;20426;-79
2020/12/17 05:19:21;;;;;;;19.50;9.43;;;;;;;2.78;88.28;99368.72;5032554;28;20057;-80
2020/12/17 05:21:47;;;;;;;16.58;9.52;;;;;;;2.73;88.31;99365.59;5033521;28;20064;-80
2020/12/17 05:24:15;;;;;;;19.50;9.82;;;;;;;2.79;88.13;99383.88;5040658;28;20057;-79
2020/12/17 05:26:43;;;;;;;17.00;10.30;;;;;;;2.84;88.31;99386.16;5040716;28;20049;-80
2020/12/17 05:29:12;;;;;;;18.13;9.88;;;;;;;2.70;88.22;99367.72;5037772;28;20056;-80
2020/12/17 05:31:40;;;;;;;18.15;8.48;;;;;;;2.65;88.21;99394.94;5050899;28;20084;-79
2020/12/17 05:34:06;;;;;;;17.00;8.98;;;;;;;2.64;87.81;99380.66;5043797;28;20057;-80
2020/12/17 05:36:35;;;;;;;19.13;10.45;;;;;;;2.82;88.05;99399.72;5043510;28;20049;-79
2020/12/17 05:39:12;;;;;;;19.63;9.95;;;;;;;2.83;88.18;99400.56;5050919;28;20073;-80
2020/12/17 05:41:41;;;;;;;13.55;8.00;;;;;;;2.85;87.85;99409.34;5050645;28;20079;-80
2020/12/17 05:44:13;;;;;;;16.83;9.85;;;;;;;2.56;88.09;99385.81;5048666;28;20049;-80
2020/12/17 05:46:41;;;;;;;17.35;9.25;;;;;;;2.57;88.30;99382.13;5049994;28;20053;-80
2020/12/17 05:49:12;;;;;;;15.82;8.98;;;;;;;2.58;88.06;99391.06;5048962;28;20410;-80
2020/12/17 05:51:39;;;;;;;14.13;8.43;;;;;;;2.68;88.01;99409.91;5043192;28;20057;-81
2020/12/17 05:54:11;;;;;;;12.70;7.22;;;;;;;2.55;88.08;99399.38;5046425;28;20048;-80
2020/12/17 05:56:38;;;;;;;14.10;8.38;;;;;;;2.47;88.12;99376.69;5038461;28;20067;-80
2020/12/17 05:59:05;;;;;;;15.38;8.88;;;;;;;2.58;88.16;99399.09;5051205;28;20390;-80
2020/12/17 06:01:33;;;;;;;11.98;7.00;;;;;;;2.76;88.02;99426.25;5038584;28;20049;-80
2020/12/17 06:04:13;;;;;;;18.15;7.93;;;;;;;2.54;87.88;99409.22;5035129;28;20075;-80
2020/12/17 06:06:45;;;;;;;17.23;8.82;;;;;;;2.74;87.80;99437.13;5050518;28;20143;-80
2020/12/17 06:09:19;;;;;;;16.95;7.93;;;;;;;2.62;87.59;99447.03;5049278;28;20133;-80
2020/12/17 06:11:46;;;;;;;16.75;7.97;;;;;;;2.54;87.77;99429.84;5035629;28;20080;-80
2020/12/17 06:14:14;;;;;;;13.63;8.23;;;;;;;2.64;87.85;99453.13;5047757;28;20041;-80
2020/12/17 06:16:43;;;;;;;16.73;8.38;;;;;;;2.59;87.68;99433.88;5052131;28;20053;-79
2020/12/17 06:19:12;;;;;;;16.88;9.20;;;;;;;2.68;88.14;99451.06;5052180;28;20075;-80
2020/12/17 06:21:40;;;;;;;16.98;9.57;;;;;;;2.74;88.56;99458.59;5050879;28;20044;-80
2020/12/17 06:24:07;;;;;;;17.95;8.35;;;;;;;2.69;88.59;99450.06;5041407;28;20076;-80
2020/12/17 06:26:40;;;;;;;14.73;8.15;;;;;;;2.75;88.86;99449.53;5050628;28;20045;-79
2020/12/17 06:29:17;;;;;;;15.85;8.13;;;;;;;2.81;88.26;99440.13;5050635;28;20048;-80
2020/12/17 06:31:56;;;;;;;15.00;7.50;;;;;;;3.04;88.02;99470.44;5046807;28;20049;-80
2020/12/17 06:34:23;;;;;;;16.77;7.80;;;;;;;3.02;88.15;99472.38;5042685;28;20559;-80
2020/12/17 06:36:55;;;;;;;14.30;8.50;;;;;;;2.91;87.86;99451.81;5045071;28;20052;-80
2020/12/17 06:39:21;;;;;;;16.00;8.82;;;;;;;3.09;87.71;99478.13;5035851;28;20051;-80
2020/12/17 06:41:48;;;;;;;15.82;9.93;;;;;;;3.15;87.39;99475.75;5035727;28;20053;-80
2020/12/17 06:44:31;;;;;;;13.45;6.97;;;;;;;3.11;87.39;99478.81;5049025;28;20056;-80
2020/12/17 06:47:00;;;;;;;13.55;8.48;;;;;;;3.27;87.01;99481.06;5054980;28;20056;-80
2020/12/17 06:49:27;;;;;;;17.27;7.15;;;;;;;3.26;86.43;99484.75;5054401;28;20052;-80
2020/12/17 06:52:07;;;;;;;20.95;8.07;;;;;;;3.32;86.62;99478.84;5036787;28;20056;-81
2020/12/17 06:54:39;;;;;;;12.82;7.70;;;;;;;3.22;86.54;99464.47;5051257;28;20563;-79
2020/12/17 06:57:07;;;;;;;14.13;7.57;;;;;;;3.35;86.65;99500.91;5054005;28;20052;-79
2020/12/17 06:59:34;;;;;;;16.38;7.47;;;;;;;3.31;86.63;99493.25;5049298;28;20052;-79
2020/12/17 07:02:02;;;;;;;11.30;7.43;;;;;;;3.24;86.68;99478.63;5054703;28;20057;-79
2020/12/17 07:04:42;;;;;;;14.27;7.43;;;;;;;3.38;86.50;99499.81;5054200;28;20041;-79
2020/12/17 07:07:13;;;;;;;12.75;6.97;;;;;;;3.32;86.22;99489.59;5045313;28;20072;-79
2020/12/17 07:09:40;;;;;;;11.27;6.57;;;;;;;3.50;86.11;99506.81;5054234;28;20254;-80
2020/12/17 07:12:07;;;;;;;11.90;7.55;;;;;;;3.51;86.25;99513.06;5049346;28;20049;-80
2020/12/17 07:14:35;;;;;;;9.20;6.22;;;;;;;3.36;85.96;99480.28;5053692;28;20045;-80
2020/12/17 07:17:04;;;;;;;12.50;6.72;;;;;;;3.39;86.18;99489.91;5052710;28;20102;-80
2020/12/17 07:19:39;;;;;;;9.10;6.15;;;;;;;3.46;86.58;99510.78;5052686;28;20053;-80
2020/12/17 07:22:06;;;;;;;12.73;6.65;;;;;;;3.46;86.03;99508.09;5053350;28;20107;-79
2020/12/17 07:24:35;;;;;;;10.10;6.07;;;;;;;3.62;85.58;99522.91;5049421;28;20037;-79
2020/12/17 07:27:07;;;;;;;12.88;7.10;;;;;;;3.61;85.86;99519.34;5051731;28;20045;-79
2020/12/17 07:29:42;;;;;;;9.93;6.22;;;;;;;3.62;86.18;99530.97;5051566;28;20049;-79
2020/12/17 07:32:45;;;;;;;11.23;6.53;;;;;;;3.63;85.89;99527.28;5051698;28;20057;-78
2020/12/17 07:35:19;;;;;;;9.77;6.13;;;;;;;3.75;85.41;99536.13;5047439;28;20428;-79
2020/12/17 07:37:47;;;;;;;11.27;6.28;;;;;;;3.75;85.38;99539.69;5052023;28;20052;-79
2020/12/17 07:40:22;;;;;;;8.52;5.50;;;;;;;3.66;85.39;99533.25;5050943;28;20045;-79
2020/12/17 07:43:03;;;;;;;12.20;6.68;;;;;;;3.67;84.45;99534.09;5053488;28;20393;-79
2020/12/17 07:45:46;;;;;;;11.65;6.90;;;;;;;3.79;84.89;99549.16;5050479;28;20050;-79
2020/12/17 07:48:36;;;;;;;9.88;6.43;;;;;;;3.78;85.02;99560.06;5048918;28;20275;-79
2020/12/17 07:51:04;;;;;;;9.27;6.63;;;;;;;3.68;85.29;99549.25;5047108;28;20083;-79
2020/12/17 07:53:31;;;;;;;9.48;5.85;;;;;;;3.88;84.92;99564.53;5052225;28;20091;-79
2020/12/17 07:55:57;;;;;;;10.25;6.57;;;;;;;3.90;84.10;99549.13;5054280;28;20095;-79
2020/12/17 07:58:23;;;;;;;9.27;5.95;;;;;;;3.89;84.53;99573.47;5053729;28;20041;-78
2020/12/17 08:00:54;;;;;;;11.32;6.60;;;;;;;3.80;84.88;99566.19;5048062;28;20140;-78
2020/12/17 08:03:20;;;;;;;9.70;5.70;;;;;;;3.87;84.75;99564.69;5053138;28;20070;-79
2020/12/17 08:05:52;;;;;;;9.07;5.63;;;;;;;3.91;84.36;99558.03;5054229;28;20049;-79
2020/12/17 08:08:20;;;;;;;8.43;5.68;;;;;;;3.89;84.44;99570.75;5054446;28;20461;-79
2020/12/17 08:10:46;;;;;;;10.93;5.80;;;;;;;4.04;84.34;99580.19;5051822;28;20076;-79
2020/12/17 08:13:15;;;;;;;14.95;6.72;;;;;;;4.08;84.53;99592.41;5053921;28;20049;-78
2020/12/17 08:15:41;;;;;;;11.68;5.90;;;;;;;3.97;85.05;99565.56;5053997;28;20048;-79
2020/12/17 08:18:24;;;;;;;8.45;5.57;;;;;;;4.18;83.71;99567.38;5051720;28;20041;-79
2020/12/17 08:21:06;;;;;;;9.48;5.50;;;;;;;4.23;84.17;99579.47;5054181;28;20052;-78
2020/12/17 08:23:36;;;;;;;8.25;5.38;;;;;;;4.12;83.81;99554.47;5054249;28;20045;-79
2020/12/17 08:26:11;;;;;;;9.02;5.70;;;;;;;4.23;83.19;99567.81;5054295;28;20045;-79
2020/12/17 08:28:41;;;;;;;10.02;5.55;;;;;;;4.33;83.70;99581.34;5054370;28;20060;-79
2020/12/17 08:41:04;;;;;;;12.23;5.32;;;;;;;4.53;82.96;99579.56;5044483;28;20055;-79
2020/12/17 08:46:56;;;;;;;9.40;5.03;;;;;;;4.42;83.34;99592.13;5049469;28;20120;-78
2020/12/17 08:56:01;;;;;;;10.90;4.90;;;;;;;4.26;83.07;99591.81;5048606;28;20055;-79
2020/12/17 08:58:53;;;;;;;10.40;5.03;;;;;;;4.34;83.02;99591.97;5046101;28;20048;-79
2020/12/17 09:01:43;;;;;;;8.95;5.00;;;;;;;4.45;82.62;99603.63;5033760;28;20067;-79
2020/12/17 09:04:09;;;;;;;6.75;4.53;;;;;;;4.45;82.01;99588.31;5050503;28;20052;-79
2020/12/17 09:07:22;;;;;;;11.05;4.78;;;;;;;4.54;82.36;99605.50;5052989;28;20056;-78
2020/12/17 09:13:11;;;;;;;7.68;4.35;;;;;;;4.44;82.66;99594.69;5041286;28;20608;-79
2020/12/17 09:15:37;;;;;;;8.60;4.50;;;;;;;4.59;83.00;99622.97;5051772;28;20045;-79
2020/12/17 09:35:02;;;;;;;9.38;4.22;;;;;;;4.86;82.17;99637.66;5051637;28;20048;-79
2020/12/17 09:54:21;;;;;;;7.03;4.10;;;;;;;6.09;80.30;99641.78;5051162;28;20064;-79
2020/12/17 09:57:00;;;;;;;;;;;;;;;6.16;78.98;99639.38;5052606;28;20045;-79
2020/12/17 09:59:27;;;;;;;7.55;3.88;;;;;;;6.28;79.89;99634.63;5052596;28;19921;-79
2020/12/17 10:01:56;;;;;;;7.95;4.10;;;;;;;6.28;78.64;99618.44;5052100;28;20493;-79
2020/12/17 10:07:46;;;;;;;19.92;4.50;;;;;;;6.35;79.20;99633.06;5031687;28;20270;-79
2020/12/17 10:10:14;;;;;;;10.00;4.72;;;;;;;6.24;79.13;99619.75;5032360;28;20397;-79
2020/12/17 10:12:41;;;;;;;6.80;3.92;;;;;;;6.43;79.42;99645.84;5048357;28;20144;-79
2020/12/17 10:15:23;;;;;;;6.65;3.92;;;;;;;6.42;79.24;99647.69;5051674;28;20131;-79
2020/12/17 10:17:49;;;;;;;6.20;4.28;;;;;;;6.47;78.95;99644.56;5054339;28;20130;-79
2020/12/17 10:37:14;;;;;;;7.97;3.90;;;;;;;7.21;77.55;99629.28;5036285;28;20121;-79
2020/12/17 10:53:26;;;;;;;5.35;3.40;;;;;;;7.58;75.62;99642.69;5036301;28;20458;-79
2020/12/17 10:55:53;;;;;;;15.15;3.75;;;;;;;7.67;76.12;99627.38;5047612;28;20045;-79
2020/12/17 10:58:19;;;;;;;4.85;3.03;;;;;;;7.88;74.60;99650.59;5055770;28;20489;-79
2020/12/17 11:00:46;;;;;;;6.53;3.15;;;;;;;7.82;75.04;99624.16;5049162;28;20045;-79
2020/12/17 11:03:12;;;;;;;10.10;4.03;;;;;;;7.97;75.22;99647.78;5055483;28;20072;-79
2020/12/17 11:05:39;;;;;;;6.65;3.15;;;;;;;7.96;75.75;99686.72;5053525;28;20048;-79
2020/12/17 11:08:05;;;;;;;4.15;3.30;;;;;;;7.90;74.29;99686.47;5053937;28;20134;-79
2020/12/17 11:10:33;;;;;;;6.70;3.05;;;;;;;7.83;74.78;99680.84;5055446;28;20567;-81
2020/12/17 11:12:59;;;;;;;7.53;3.53;;;;;;;7.91;75.69;99661.09;5040009;28;20137;-80
2020/12/17 11:15:25;;;;;;;3.83;3.17;;;;;;;8.04;74.61;99696.75;5051264;28;20409;-80
2020/12/17 11:17:51;;;;;;;6.80;4.88;;;;;;;7.95;73.74;99703.13;5054941;28;20064;-80
2020/12/17 11:20:18;;;;;;;7.85;3.65;;;;;;;7.80;74.23;99681.97;5055382;28;20048;-79
2020/12/17 11:22:45;;;;;;;8.63;4.25;;;;;;;7.61;74.70;99674.00;5055716;28;20056;-79
2020/12/17 11:25:11;;;;;;;7.22;4.10;;;;;;;7.75;74.86;99669.91;5053450;28;20481;-79
2020/12/17 11:27:40;;;;;;;10.05;4.30;;;;;;;7.88;75.42;99694.75;5053738;28;20552;-79
2020/12/17 11:30:08;;;;;;;5.30;3.80;;;;;;;7.94;75.49;99704.94;5052928;28;20045;-79
2020/12/17 11:32:34;;;;;;;8.02;3.78;;;;;;;7.87;75.90;99709.28;5053734;28;20053;-79
2020/12/17 11:35:06;;;;;;;6.95;3.83;;;;;;;7.98;76.96;99702.81;5053312;28;20049;-79
2020/12/17 11:37:32;;;;;;;7.95;3.92;;;;;;;7.84;77.01;99679.81;5036490;28;20056;-79
2020/12/17 11:39:58;;;;;;;6.80;3.95;;;;;;;8.01;75.30;99675.41;5053317;28;20441;-79
2020/12/17 11:42:25;;;;;;;7.57;4.18;;;;;;;8.07;75.04;99676.63;5053110;28;20484;-79
2020/12/17 11:44:52;;;;;;;7.90;3.85;;;;;;;8.08;75.66;99681.03;5053037;28;20447;-79
2020/12/17 11:47:18;;;;;;;8.25;3.95;;;;;;;7.71;75.14;99658.56;5053411;28;20052;-79
2020/12/17 11:49:44;;;;;;;7.85;3.97;;;;;;;7.94;75.90;99672.47;5053110;28;20508;-79
2020/12/17 11:52:10;;;;;;;6.63;3.78;;;;;;;7.86;76.94;99675.09;5053051;28;20049;-79
2020/12/17 11:54:37;;;;;;;5.18;3.60;;;;;;;7.76;76.34;99672.47;5033209;28;20046;-80
2020/12/17 11:57:03;;;;;;;8.10;4.65;;;;;;;7.82;76.66;99673.72;5033209;28;20045;-79
2020/12/17 11:59:29;;;;;;;7.88;3.95;;;;;;;7.76;75.22;99674.31;5046762;28;20064;-80
2020/12/17 12:01:57;;;;;;;7.38;4.63;;;;;;;7.72;76.37;99676.50;5052204;28;20155;-79
2020/12/17 12:04:23;;;;;;;7.00;4.40;;;;;;;7.85;76.30;99689.63;5052509;28;20111;-80
2020/12/17 12:06:49;;;;;;;8.98;4.35;;;;;;;7.74;76.71;99687.19;5052258;28;20049;-79
2020/12/17 12:09:18;;;;;;;6.05;3.67;;;;;;;7.69;76.21;99682.19;5053262;28;20079;-79
2020/12/17 12:11:45;;;;;;;5.68;3.75;;;;;;;7.71;76.91;99691.03;5052326;28;20592;-79
2020/12/17 12:14:14;;;;;;;9.40;3.78;;;;;;;7.62;77.81;99664.91;5053003;28;20136;-79
2020/12/17 12:16:40;;;;;;;11.75;4.38;;;;;;;7.60;77.63;99692.09;5051961;28;20132;-79
2020/12/17 12:19:07;;;;;;;10.48;4.38;;;;;;;7.52;77.58;99681.19;5043053;28;20049;-80
2020/12/17 12:21:34;;;;;;;9.40;3.70;;;;;;;7.65;77.70;99691.66;5032912;28;20490;-79
2020/12/17 12:24:00;;;;;;;6.20;3.88;;;;;;;7.68;78.53;99699.47;5046419;28;20049;-79
2020/12/17 12:26:29;;;;;;;5.97;3.65;;;;;;;7.49;79.15;99676.06;5053558;28;20049;-79
2020/12/17 12:28:56;;;;;;;7.45;3.92;;;;;;;7.46;79.10;99675.53;5051557;28;20049;-79
2020/12/17 12:31:22;;;;;;;5.50;3.72;;;;;;;7.59;79.24;99700.38;5052347;28;20053;-79
2020/12/17 12:33:48;;;;;;;7.68;3.97;;;;;;;7.52;79.60;99696.56;5051297;28;20052;-79
2020/12/17 12:36:16;;;;;;;8.07;3.72;;;;;;;7.48;80.02;99693.31;5050226;28;20041;-79
2020/12/17 12:38:42;;;;;;;8.15;4.05;;;;;;;7.40;79.89;99690.53;5047301;28;20072;-79
2020/12/17 12:41:10;;;;;;;10.05;5.55;;;;;;;7.52;80.43;99683.03;5051175;28;20072;-79
2020/12/17 12:43:36;;;;;;;7.38;4.50;;;;;;;7.50;80.95;99704.84;5051966;28;20045;-79
2020/12/17 12:46:03;;;;;;;8.57;4.78;;;;;;;7.47;80.33;99706.97;5050838;28;20451;-79
2020/12/17 12:48:29;;;;;;;6.93;4.07;;;;;;;7.47;80.25;99674.50;5051498;28;20044;-79
2020/12/17 12:50:55;;;;;;;8.57;4.95;;;;;;;7.51;80.02;99693.03;5051225;28;20057;-79
2020/12/17 12:53:25;;;;;;;7.07;4.20;;;;;;;7.49;80.49;99675.25;5051719;28;20132;-79
2020/12/17 12:55:51;;;;;;;;;;;;;;;7.69;80.24;99690.31;5053575;28;20048;-79
2020/12/17 12:58:20;;;;;;;7.65;4.45;;;;;;;7.67;79.81;99680.66;5052781;28;19921;-79
2020/12/17 13:00:51;;;;;;;12.43;4.30;;;;;;;7.73;80.53;99677.34;5063669;28;20095;-77
2020/12/17 13:03:17;;;;;;;8.85;4.38;;;;;;;7.56;81.13;99685.28;5053631;28;20111;-79
2020/12/17 13:05:43;;;;;;;8.27;4.30;;;;;;;7.42;81.25;99669.56;5053187;28;20053;-79
2020/12/17 13:08:10;;;;;;;9.27;4.07;;;;;;;7.57;81.33;99676.19;5051771;28;20041;-79
2020/12/17 13:10:37;;;;;;;6.38;4.30;;;;;;;7.64;81.31;99694.50;5051469;28;20057;-79
2020/12/17 13:13:05;;;;;;;5.70;4.00;;;;;;;7.55;81.25;99691.69;5051657;28;20049;-79
2020/12/17 13:15:31;;;;;;;7.38;4.05;;;;;;;7.53;81.30;99665.81;5050612;28;20790;-79